Tybee Island, GA (31328)

3:16 PM EDT on August 29, 2014 (GMT -0400)
Tid-Bit | Change Station
CLOSE
Current Station
Personal Weather Station
Location: Tybee Island, GA
Elevation: 10 ft
Nearby Weather Stations

Elev 10 ft 32.01 °N, 80.85 °W | Updated 7 minutes ago

Clear
Clear
87.6 °F
Feels Like 98 °F
N
5.0
Wind Variable Wind from SSE
Gusts 9.0 mph

Today
High -- | Low -- °F
--% Chance of Precip.
Yesterday
High -- | Low -- °F
Precip. -- in
6:56 AM 7:51 PM
Waxing Crescent, 16% visible
Pressure 30.08 in
Visibility 10.0 miles
Clouds Few 3000 ft
Heat Index 98 °F
Dew Point 75 °F
Humidity 67%
Rainfall 0.00 in
Snow Depth Not available.
UV 10 out of 12
Pollen 6.80 out of 12
Air Quality Not available.
Flu Activity Not available.
METAR KHXD 291850Z 11005KT 10SM FEW030 30/22 A3008

More Conditions Fewer Conditions

Pressure 30.08 in
Visibility 10.0 miles
Clouds Few 3000 ft
Heat Index 98 °F
Dew Point 75 °F
Humidity 67%
Rainfall 0.00 in
Snow Depth Not available.
UV 10 out of 12
Pollen 6.80 out of 12
Air Quality Not available.
Flu Activity Not available.
METAR KHXD 291850Z 11005KT 10SM FEW030 30/22 A3008

More Conditions Fewer Conditions

10-Day Weather Forecast

Almanac

Astronomy

Aug. 29, 2014 Rise Set
Actual Time 6:56 AM EDT 7:51 PM EDT
Civil Twilight 6:31 AM EDT 8:16 PM EDT
Nautical Twilight 6:02 AM EDT 8:45 PM EDT
Astronomical Twilight 5:31 AM EDT 9:16 PM EDT
Moon 10:29 AM EDT 10:05 PM EDT
Length of Visible Light 13h 44m
Length of Day
12h 54m
Tomorrow will be 1m 51s shorter.
Waxing Crescent, 16% of the Moon is Illuminated
Today
Waxing Crescent
Sep 2
First Quarter
Sep 8
Full
Sep 15
Last Quarter
Sep 24
New

Today's Extremes

State Highs State Lows

Community

WunderPhotos

Upload Photos

1,748,314 photos uploaded!

Nearby

Snow Depth

Station Depth Elevation
No new snow has been reported.

Earthquake Activity

City Distance Mag. Time & Date
No recent earthquake activity has been reported nearby.
Minimum magnitude displayed is 2.5.

Coastal Water Temperatures

Place Temperature
No Stations Reporting

Nearby Weather Stations